CheckWX is a tool to help pilots better visualize weather data.  It is not intended as a substitute for an official pre-flight weather briefing.

02:51:59 UTC

KFRH METAR
French Lick Municipal Airport
French Lick, Indiana, USA
Current

17 mins ago

KFRH 230235Z AUTO 21005KT 10SM SCT065 24/15 A2999 RMK AO1
Observed
Sep-23 @ 02:35 UTC
Wind
  • 210° at 5 KTS
Visibility
10 SM
Flight Rules
VFR
Cloud Levels
  • Scattered at 6,500' AGL
Temperature
24°C / 75°F
Dewpoint
15°C / 59°F
Humidity
57%
Altimeter
29.99" Hg
Pressure
1015.62 hPa
Previous

37 mins ago

KFRH 230215Z AUTO 20004KT 10SM SCT065 25/15 A2999 RMK AO1
Observed
Sep-23 @ 02:15 UTC
Wind
  • 200° at 4 KTS
Visibility
10 SM
Flight Rules
VFR
Cloud Levels
  • Scattered at 6,500' AGL
Temperature
25°C / 77°F
Dewpoint
15°C / 59°F
Humidity
54%
Altimeter
29.99" Hg
Pressure
1015.62 hPa
Previous

57 mins ago

KFRH 230155Z AUTO 21004KT 10SM CLR 25/14 A2999 RMK AO1
Observed
Sep-23 @ 01:55 UTC
Wind
  • 210° at 4 KTS
Visibility
10 SM
Flight Rules
VFR
Cloud Levels
  • Clear skies
Temperature
25°C / 77°F
Dewpoint
14°C / 57°F
Humidity
51%
Altimeter
29.99" Hg
Pressure
1015.62 hPa